Meath Environmental Platform

Observations for Trim Patrick St

Time AQI Temp °C Hum % Pres Pa CO μg/m³ H₂S μg/m³ NO μg/m³ NO₂ μg/m³ O₃ μg/m³ SO₂ μg/m³ PM1 μg/m³ PM2.5 μg/m³ PM10 μg/m³
Thursday 6 August 2026
07:08 2 13.2 77 38,460 0.32 0 3.39 12.19 22.03 0 2.86 6.12 6.73
07:04 2 13.1 77 38,460 0.32 0 3.39 10.85 22.62 0 2 4.7 5.17
07:03 2 13.1 77 38,460 0.33 0 3.45 11.74 19.58 0 2.86 6.1 6.71
07:02 2 13.1 78 38,460 0.33 0 3.5 11.53 22.55 0 2 5.38 5.92
07:01 2 13.1 78 38,460 0.35 0 3.52 13.9 16.6 0 2.86 6.09 6.7
07:00 2 13.1 78 38,460 0.33 0 3.45 10.3 26.01 0 2.86 6.79 7.47
06:59 2 13.1 78 38,460 0.34 0 3.39 13.52 17.25 0 2.86 5.38 5.92
06:58 2 13.1 78 38,460 0.34 0 3.35 11.91 22.71 0 2 5.38 5.92
06:57 2 13.1 78 38,460 0.34 0 3.31 14.1 20.43 0 2.86 6.08 6.68
06:56 2 13.1 78 38,460 0.32 0 3.26 13.33 17.21 0 2 6.08 6.68
06:55 2 13.1 78 38,460 0.32 0 3.32 12.16 20.89 0 2 5.37 5.91
06:54 2 13 78 38,460 0.33 0 3.33 12.58 25.6 0 2 5.36 5.9
06:53 2 13 78 38,460 0.33 0 3.44 12.1 24.23 0 2 6.07 6.68
06:52 2 13 78 38,460 0.33 0 3.37 13.44 22.23 0 2 5.36 5.89
06:51 2 13 78 38,460 0.34 0 3.42 10.97 26.24 0 2 5.36 5.89
06:50 2 12.9 78 38,460 0.35 0 3.45 11.27 26.62 0 2 4.65 5.12
06:49 2 12.9 78 38,460 0.35 0 3.5 10.63 24.66 0 2.86 6.06 6.67
06:47 2 12.9 78 38,460 0.33 0 3.52 11.88 30.45 0 2.86 5.37 5.91
06:46 2 12.9 77 38,460 0.32 0 3.46 12.43 26.52 0 2 5.41 5.95
06:45 2 12.8 77 38,460 0.33 0 3.43 11.03 27.3 0 2.86 6.11 6.72